Time;durP1;ratioP1;P1;durP2;ratioP2;P2;SDS_P1;SDS_P2;PMS_P1;PMS_P2;Temp;Humidity;BMP_temperature;BMP_pressure;BME280_temperature;BME280_humidity;BME280_pressure;Samples;Min_cycle;Max_cycle;Signal;HPM_P1;HPM_P2
2021/12/23 00:00:38;;;;;;;24.65;21.92;;;;;;;-0.11;66.47;100623.72;10245080;28;20055;-63
2021/12/23 00:05:40;;;;;;;24.02;19.40;;;;;;;-0.18;66.67;100601.28;10245537;28;20051;-64
2021/12/23 00:10:41;;;;;;;23.50;20.55;;;;;;;-0.16;66.91;100583.75;10245500;28;20049;-63
2021/12/23 00:26:16;;;;;;;30.88;21.85;;;;;;;0.02;66.41;100561.38;10263397;28;20051;-64
2021/12/23 00:31:19;;;;;;;23.40;20.20;;;;;;;0.01;66.46;100543.13;10234896;28;20042;-64
2021/12/23 00:36:20;;;;;;;22.73;19.05;;;;;;;-0.08;66.02;100537.25;10232212;28;20050;-64
2021/12/23 00:41:23;;;;;;;26.83;20.38;;;;;;;-0.08;66.20;100541.66;10262676;28;20074;-63
2021/12/23 00:46:25;;;;;;;23.48;20.02;;;;;;;0.01;66.09;100533.50;10262217;28;20059;-64
2021/12/23 00:51:27;;;;;;;24.40;19.58;;;;;;;-0.15;66.52;100538.38;10240952;28;20390;-64
2021/12/23 00:56:28;;;;;;;25.58;21.50;;;;;;;-0.20;67.09;100528.03;10241892;28;20047;-64
2021/12/23 01:01:29;;;;;;;25.48;20.67;;;;;;;-0.18;66.39;100512.31;10263522;28;20117;-64
2021/12/23 01:06:31;;;;;;;22.83;19.80;;;;;;;-0.07;65.89;100514.59;10264299;28;20133;-64
2021/12/23 01:11:33;;;;;;;23.40;19.60;;;;;;;-0.13;66.11;100510.41;10262958;28;20051;-64
2021/12/23 01:16:49;;;;;;;24.67;20.40;;;;;;;-0.10;66.40;100498.97;10264977;28;20133;-64
2021/12/23 01:21:51;;;;;;;23.13;19.52;;;;;;;-0.07;66.48;100502.34;10265334;28;20133;-64
2021/12/23 01:26:52;;;;;;;23.88;20.35;;;;;;;-0.17;66.41;100497.47;10241535;28;20575;-64
2021/12/23 01:31:54;;;;;;;25.00;20.05;;;;;;;-0.12;66.41;100499.03;10262343;28;20043;-64
2021/12/23 01:36:57;;;;;;;26.17;19.48;;;;;;;-0.12;66.42;100496.41;10260884;28;20051;-64
2021/12/23 01:41:58;;;;;;;23.92;19.65;;;;;;;-0.15;66.42;100490.41;10260487;28;20398;-64
2021/12/23 01:47:00;;;;;;;26.02;20.67;;;;;;;-0.40;67.30;100471.13;10251726;28;20110;-64
2021/12/23 01:52:01;;;;;;;23.83;19.38;;;;;;;-0.27;66.87;100463.75;10270403;28;20150;-64
2021/12/23 01:57:04;;;;;;;22.70;19.65;;;;;;;-0.23;67.18;100465.34;10259765;28;20058;-64
2021/12/23 02:02:05;;;;;;;22.80;19.67;;;;;;;-0.31;67.08;100456.06;10261669;28;20479;-64
2021/12/23 02:07:07;;;;;;;26.45;19.33;;;;;;;-0.24;67.07;100462.78;10262313;28;20059;-64
2021/12/23 02:12:09;;;;;;;25.55;20.38;;;;;;;-0.28;66.67;100461.19;10263325;28;20150;-64
2021/12/23 02:17:11;;;;;;;24.33;20.10;;;;;;;-0.21;65.99;100437.38;10259861;28;20133;-64
2021/12/23 02:22:12;;;;;;;23.55;19.73;;;;;;;-0.37;66.61;100418.69;10258948;28;20047;-63
2021/12/23 02:27:14;;;;;;;37.58;22.17;;;;;;;-0.41;66.99;100421.47;10266986;28;20398;-64
2021/12/23 02:32:15;;;;;;;25.92;20.35;;;;;;;-0.42;66.46;100415.41;10267105;28;20057;-65
2021/12/23 02:37:16;;;;;;;25.98;19.92;;;;;;;-0.36;67.06;100440.50;10267797;28;20070;-64
2021/12/23 02:42:18;;;;;;;24.63;19.77;;;;;;;-0.19;66.57;100432.09;10250792;28;20050;-64
2021/12/23 02:47:19;;;;;;;24.30;21.25;;;;;;;-0.20;66.59;100417.28;10249998;28;20239;-64
2021/12/23 02:52:21;;;;;;;25.98;20.63;;;;;;;-0.41;66.69;100396.16;10247651;28;20051;-64
2021/12/23 02:57:24;;;;;;;24.80;20.65;;;;;;;-0.31;66.40;100407.19;10265839;28;20466;-64
2021/12/23 03:02:25;;;;;;;24.63;20.27;;;;;;;-0.29;67.06;100399.28;10249166;28;20074;-64
2021/12/23 03:07:27;;;;;;;27.38;20.58;;;;;;;-0.27;66.30;100400.97;10276113;28;20034;-64
2021/12/23 03:12:28;;;;;;;24.90;20.02;;;;;;;-0.30;66.82;100394.94;10289583;28;20054;-63
2021/12/23 03:17:30;;;;;;;28.45;21.25;;;;;;;-0.25;66.90;100408.75;10265252;28;20489;-64
2021/12/23 03:22:31;;;;;;;23.42;19.63;;;;;;;-0.30;66.79;100387.97;10252389;28;20050;-64
2021/12/23 03:27:33;;;;;;;24.48;20.33;;;;;;;-0.30;66.38;100374.03;10264064;28;20053;-64
2021/12/23 03:32:34;;;;;;;24.27;20.40;;;;;;;-0.47;67.30;100351.06;10296056;23;20049;-63
2021/12/23 03:37:36;;;;;;;25.60;21.38;;;;;;;-0.50;67.14;100349.38;10264602;28;20074;-63
2021/12/23 03:42:39;;;;;;;25.00;20.80;;;;;;;-0.40;66.80;100366.50;10247445;28;20047;-62
2021/12/23 03:47:40;;;;;;;25.48;20.10;;;;;;;-0.56;66.94;100339.97;10264488;28;20061;-62
2021/12/23 03:52:42;;;;;;;21.98;19.27;;;;;;;-0.46;66.71;100352.78;10264918;28;20051;-62
2021/12/23 03:57:44;;;;;;;25.65;21.35;;;;;;;-0.51;67.25;100329.41;10246877;28;20081;-63
2021/12/23 04:02:46;;;;;;;23.45;19.45;;;;;;;-0.38;67.11;100340.28;10240348;28;20245;-63
2021/12/23 04:07:48;;;;;;;26.58;21.73;;;;;;;-0.44;66.84;100332.66;10265781;28;20059;-62
2021/12/23 04:12:50;;;;;;;23.88;20.15;;;;;;;-0.41;67.37;100338.63;10251880;28;20055;-62
2021/12/23 04:17:52;;;;;;;24.55;21.88;;;;;;;-0.33;66.58;100329.66;10269921;28;20549;-62
2021/12/23 04:22:54;;;;;;;24.65;20.88;;;;;;;-0.40;66.48;100303.72;10263279;28;20057;-62
2021/12/23 04:28:00;;;;;;;22.77;20.38;;;;;;;-0.46;66.64;100279.53;10265092;28;20126;-64
2021/12/23 04:33:02;;;;;;;25.67;20.83;;;;;;;-0.32;66.10;100289.53;10239757;28;20141;-62
2021/12/23 04:38:04;;;;;;;24.27;20.13;;;;;;;-0.38;66.53;100291.44;10263270;28;20105;-62
2021/12/23 04:43:07;;;;;;;26.48;21.48;;;;;;;-0.38;66.66;100287.97;10239701;28;20471;-62
2021/12/23 04:48:08;;;;;;;26.48;20.98;;;;;;;-0.51;66.90;100277.09;10261713;28;20058;-64
2021/12/23 04:53:09;;;;;;;29.02;21.80;;;;;;;-0.49;66.82;100275.28;10263000;28;20061;-63
2021/12/23 04:58:11;;;;;;;23.40;20.73;;;;;;;-0.51;67.67;100269.25;10262834;28;20063;-62
2021/12/23 05:03:22;;;;;;;24.83;20.42;;;;;;;-0.40;66.89;100258.41;10260123;28;20068;-62
2021/12/23 05:08:24;;;;;;;26.60;20.73;;;;;;;-0.37;67.06;100271.38;10259476;28;20390;-64
2021/12/23 05:13:25;;;;;;;24.75;20.45;;;;;;;-0.29;66.73;100264.09;10260904;28;20142;-62
2021/12/23 05:18:26;;;;;;;26.85;21.60;;;;;;;-0.26;66.38;100253.53;10262869;28;20053;-62
2021/12/23 05:23:29;;;;;;;27.10;20.05;;;;;;;-0.26;66.14;100264.00;10245873;28;20555;-62
2021/12/23 05:28:30;;;;;;;24.40;19.92;;;;;;;-0.25;66.14;100250.00;10243347;28;21758;-62
2021/12/23 05:33:32;;;;;;;25.15;21.08;;;;;;;-0.30;66.60;100245.84;10255432;28;20518;-62
2021/12/23 05:38:33;;;;;;;24.70;21.58;;;;;;;-0.28;66.23;100241.44;10253631;28;20073;-63
2021/12/23 05:43:35;;;;;;;25.60;20.75;;;;;;;-0.22;65.92;100252.50;10252444;28;20074;-62
2021/12/23 05:48:36;;;;;;;25.95;20.75;;;;;;;-0.38;66.34;100217.34;10268587;28;20051;-63
2021/12/23 05:53:37;;;;;;;25.02;20.30;;;;;;;-0.15;66.07;100237.47;10262376;28;20132;-63
2021/12/23 05:58:39;;;;;;;26.48;21.90;;;;;;;-0.25;66.22;100217.78;10247953;28;20050;-60
2021/12/23 06:03:41;;;;;;;24.90;21.67;;;;;;;-0.23;66.11;100213.31;10249319;28;20054;-60
2021/12/23 06:08:43;;;;;;;28.98;21.40;;;;;;;-0.22;65.99;100199.34;10247931;28;20085;-63
2021/12/23 06:13:45;;;;;;;31.98;22.13;;;;;;;-0.16;66.47;100199.13;10246701;28;20081;-61
2021/12/23 06:18:46;;;;;;;22.63;19.63;;;;;;;-0.21;66.16;100187.94;10247657;28;20402;-60
2021/12/23 06:23:47;;;;;;;26.45;21.65;;;;;;;-0.52;66.70;100134.16;10244506;28;20047;-63
2021/12/23 06:28:49;;;;;;;25.27;20.15;;;;;;;-0.11;66.37;100178.84;10245350;28;20046;-60
2021/12/23 06:33:51;;;;;;;27.70;22.08;;;;;;;-0.14;65.46;100157.19;10227446;28;20140;-62
2021/12/23 06:38:52;;;;;;;26.70;20.77;;;;;;;-0.02;66.52;100178.50;10242618;28;20054;-60
2021/12/23 06:43:54;;;;;;;25.70;20.73;;;;;;;0.03;65.95;100157.41;10241522;28;20121;-62
2021/12/23 06:48:55;;;;;;;26.35;21.08;;;;;;;0.11;66.29;100162.34;10242870;28;20149;-61
2021/12/23 06:53:58;;;;;;;29.23;22.85;;;;;;;0.15;66.24;100148.22;10243909;28;20051;-60
2021/12/23 06:59:00;;;;;;;28.08;22.95;;;;;;;0.22;65.70;100160.16;10223401;28;20058;-61
2021/12/23 07:04:37;;;;;;;31.85;24.00;;;;;;;0.17;66.64;100157.72;10242999;28;20477;-63
2021/12/23 07:09:30;;;;;;;28.48;22.70;;;;;;;0.28;66.96;100149.44;10240506;28;20126;-61
2021/12/23 07:14:31;;;;;;;27.40;22.15;;;;;;;0.04;66.35;100139.94;10251758;28;20082;-61
2021/12/23 07:19:34;;;;;;;29.75;22.85;;;;;;;-0.11;66.99;100147.44;10251114;28;20408;-64
2021/12/23 07:24:36;;;;;;;31.48;24.15;;;;;;;-0.11;67.45;100160.53;10233977;28;20060;-65
2021/12/23 07:29:37;;;;;;;29.00;23.02;;;;;;;-0.27;67.42;100136.72;10235469;28;20058;-62
2021/12/23 07:34:40;;;;;;;31.30;24.52;;;;;;;-0.47;68.38;100134.84;10235996;28;20049;-60
2021/12/23 07:39:43;;;;;;;33.90;26.70;;;;;;;-0.31;69.21;100157.84;10235721;28;20142;-62
2021/12/23 07:45:03;;;;;;;33.78;25.52;;;;;;;-0.42;68.80;100127.69;10253164;28;20051;-62
2021/12/23 07:50:06;;;;;;;30.60;23.33;;;;;;;-0.27;69.50;100133.25;10223201;28;20294;-63
2021/12/23 07:55:09;;;;;;;30.67;25.05;;;;;;;-0.45;68.82;100114.72;10228192;28;21235;-64
2021/12/23 08:00:15;;;;;;;31.52;23.75;;;;;;;-0.19;68.42;100123.34;10226366;28;20061;-61
2021/12/23 08:05:16;;;;;;;33.28;24.90;;;;;;;-0.10;68.42;100104.69;10246977;28;20051;-63
2021/12/23 08:10:18;;;;;;;30.55;24.05;;;;;;;0.03;68.20;100126.00;10247747;28;20054;-63
2021/12/23 08:15:19;;;;;;;34.03;24.95;;;;;;;-0.05;68.06;100115.81;10253269;28;20062;-61
2021/12/23 08:20:21;;;;;;;32.17;23.40;;;;;;;-0.07;68.46;100135.97;10246984;28;20055;-59
2021/12/23 08:25:23;;;;;;;30.10;23.58;;;;;;;-0.11;68.32;100108.19;10248622;28;20047;-58
2021/12/23 08:30:25;;;;;;;34.13;25.33;;;;;;;-0.08;68.91;100126.41;10248208;28;20062;-62
2021/12/23 08:35:26;;;;;;;32.78;26.17;;;;;;;-0.15;69.30;100116.22;10228403;28;20065;-62
2021/12/23 08:40:29;;;;;;;36.10;25.58;;;;;;;-0.11;68.76;100108.19;10248958;28;20806;-61
2021/12/23 08:45:32;;;;;;;31.60;25.48;;;;;;;-0.05;68.49;100094.88;10246916;28;20091;-60
2021/12/23 08:50:34;;;;;;;33.13;26.35;;;;;;;-0.17;68.48;100074.44;10264539;28;20397;-61
2021/12/23 08:55:36;;;;;;;36.35;27.65;;;;;;;-0.17;68.70;100066.56;10245663;28;20051;-63
2021/12/23 09:00:38;;;;;;;29.90;23.80;;;;;;;-0.24;69.33;100084.28;10246199;28;20402;-62
2021/12/23 09:05:42;;;;;;;34.78;25.67;;;;;;;-0.36;69.58;100075.16;10245048;28;20661;-61
2021/12/23 09:10:43;;;;;;;34.53;25.95;;;;;;;-0.40;69.82;100076.16;10246709;28;20054;-63
2021/12/23 09:15:45;;;;;;;33.92;26.23;;;;;;;-0.29;69.81;100101.06;10248671;28;21888;-62
2021/12/23 09:20:48;;;;;;;35.47;24.40;;;;;;;-0.11;69.62;100081.19;10225991;28;20061;-62
2021/12/23 09:25:52;;;;;;;34.78;26.55;;;;;;;-0.17;69.15;100087.50;10247589;28;20063;-62
2021/12/23 09:36:17;;;;;;;36.78;27.33;;;;;;;-0.46;70.75;100070.31;10247856;28;20050;-61
2021/12/23 09:41:21;;;;;;;35.67;25.75;;;;;;;-0.29;70.49;100069.69;10245708;28;20564;-61
2021/12/23 09:46:23;;;;;;;37.03;26.03;;;;;;;-0.40;70.42;100047.41;10247297;28;20051;-61
2021/12/23 09:51:27;;;;;;;33.70;25.33;;;;;;;-0.56;71.27;100048.88;10247016;28;20066;-59
2021/12/23 09:56:33;;;;;;;35.90;26.58;;;;;;;-0.54;70.97;100050.53;10228325;28;20062;-60
2021/12/23 10:01:36;;;;;;;44.92;30.15;;;;;;;-0.41;71.01;100044.84;10226831;28;20717;-61
2021/12/23 10:06:38;;;;;;;35.00;25.63;;;;;;;-0.39;71.11;100049.13;10244258;28;20043;-60
2021/12/23 10:12:07;;;;;;;37.65;27.15;;;;;;;-0.30;71.19;100052.28;10209779;23;20065;-65
2021/12/23 10:29:38;;;;;;;34.85;25.55;;;;;;;-0.25;71.11;100025.03;10186263;28;20055;-65
2021/12/23 10:33:32;;;;;;;38.40;28.48;;;;;;;-0.16;70.88;100018.59;10187817;28;20048;-66
2021/12/23 10:38:50;;;;;;;39.08;27.40;;;;;;;-0.19;71.34;100003.00;10177703;28;20044;-65
2021/12/23 10:44:01;;;;;;;35.40;25.92;;;;;;;-0.14;70.98;100011.50;10177308;28;20058;-65
2021/12/23 10:59:48;;;;;;;36.92;26.25;;;;;;;0.12;70.75;99970.34;10183883;28;20082;-63
2021/12/23 11:10:18;;;;;;;38.47;26.05;;;;;;;0.24;70.62;99959.38;10185004;28;20101;-64
2021/12/23 11:37:12;;;;;;;36.03;27.42;;;;;;;0.62;70.30;99907.06;10188188;28;20274;-62
2021/12/23 11:42:30;;;;;;;36.90;25.45;;;;;;;0.34;70.73;99908.28;10186110;28;20431;-65
2021/12/23 11:47:32;;;;;;;34.35;25.13;;;;;;;0.49;70.67;99911.16;10185968;28;20059;-64
2021/12/23 11:52:33;;;;;;;34.10;25.83;;;;;;;0.60;70.75;99908.94;10185753;28;20056;-66
2021/12/23 11:57:38;;;;;;;34.05;26.30;;;;;;;0.55;70.81;99921.34;10185486;28;20047;-65
2021/12/23 12:02:40;;;;;;;36.88;27.73;;;;;;;0.69;70.50;99918.97;10186516;28;20055;-67
2021/12/23 12:07:42;;;;;;;40.13;27.70;;;;;;;0.81;70.04;99908.84;10196197;28;20187;-63
2021/12/23 12:12:58;;;;;;;37.08;26.15;;;;;;;0.76;70.72;99897.75;10183315;28;20044;-64
2021/12/23 12:18:04;;;;;;;33.42;26.40;;;;;;;0.76;70.95;99892.50;10183463;28;20063;-66
2021/12/23 12:23:11;;;;;;;36.85;26.88;;;;;;;0.86;70.62;99880.69;10183072;28;20132;-65
2021/12/23 12:28:43;;;;;;;35.55;26.33;;;;;;;0.75;70.69;99869.84;10179950;28;20123;-65
2021/12/23 12:33:54;;;;;;;32.42;24.75;;;;;;;1.01;70.36;99866.84;10180342;28;20055;-64
2021/12/23 12:39:08;;;;;;;33.03;24.80;;;;;;;1.19;69.73;99869.53;10180602;28;20072;-65
2021/12/23 12:44:27;;;;;;;34.33;26.70;;;;;;;1.17;70.24;99867.00;10182187;28;20445;-65
2021/12/23 12:49:38;;;;;;;36.22;26.15;;;;;;;1.10;70.00;99859.50;10177561;28;20054;-66
2021/12/23 12:54:45;;;;;;;34.05;25.23;;;;;;;1.24;69.47;99851.78;10180369;28;20052;-66
2021/12/23 12:59:49;;;;;;;36.08;25.88;;;;;;;1.26;69.62;99836.00;10187038;28;20056;-67
2021/12/23 13:04:59;;;;;;;37.17;27.35;;;;;;;1.48;69.78;99833.16;10180862;28;20061;-66
2021/12/23 13:10:16;;;;;;;36.95;26.63;;;;;;;1.57;69.13;99819.59;10175744;28;20414;-66
2021/12/23 13:15:24;;;;;;;34.92;26.92;;;;;;;1.67;69.20;99818.19;10177525;28;20058;-66
2021/12/23 13:20:47;;;;;;;38.07;27.37;;;;;;;1.69;68.76;99818.97;10178536;28;20502;-66
2021/12/23 13:25:59;;;;;;;32.72;25.75;;;;;;;1.60;68.99;99777.47;10196840;28;20051;-67
2021/12/23 13:31:03;;;;;;;33.22;25.85;;;;;;;1.55;69.27;99766.38;10198525;28;20086;-67
2021/12/23 13:36:15;;;;;;;41.90;28.20;;;;;;;1.80;68.77;99759.84;10200236;28;20063;-68
2021/12/23 13:41:32;;;;;;;35.63;28.25;;;;;;;2.04;68.29;99757.69;10176241;28;20123;-65
2021/12/23 13:46:33;;;;;;;33.45;25.00;;;;;;;2.06;68.52;99756.69;10194213;28;20043;-66
2021/12/23 13:51:40;;;;;;;33.47;25.70;;;;;;;1.99;68.21;99743.97;10181998;28;20562;-67
2021/12/23 13:56:45;;;;;;;36.17;26.25;;;;;;;1.89;68.64;99728.72;10180171;28;20158;-64
2021/12/23 14:01:53;;;;;;;33.40;24.83;;;;;;;1.84;68.96;99714.13;10178467;28;20062;-66
2021/12/23 14:06:55;;;;;;;33.92;25.30;;;;;;;1.92;69.26;99722.44;10178470;28;20060;-67
2021/12/23 14:11:57;;;;;;;32.13;24.50;;;;;;;2.03;68.80;99711.38;10180641;28;20138;-66
2021/12/23 14:16:59;;;;;;;40.90;27.27;;;;;;;2.20;68.30;99710.47;10179001;28;20055;-66
2021/12/23 14:27:21;;;;;;;34.13;27.30;;;;;;;2.04;69.07;99689.44;10194732;28;20150;-65
2021/12/23 14:32:22;;;;;;;35.08;26.77;;;;;;;2.17;69.03;99698.34;10191653;28;20071;-63
2021/12/23 14:37:24;;;;;;;33.17;24.20;;;;;;;2.21;68.81;99697.25;10184351;28;20065;-63
2021/12/23 14:42:28;;;;;;;39.33;28.48;;;;;;;2.12;69.59;99690.72;10183423;28;20047;-64
2021/12/23 14:47:32;;;;;;;32.13;26.25;;;;;;;2.23;69.42;99694.53;10177466;28;20138;-64
2021/12/23 14:52:37;;;;;;;35.83;27.23;;;;;;;2.32;69.48;99680.91;10179677;28;20139;-64
2021/12/23 14:58:01;;;;;;;38.05;27.08;;;;;;;2.53;68.89;99664.88;10179001;28;20062;-67
2021/12/23 15:03:12;;;;;;;34.55;25.95;;;;;;;2.68;68.15;99658.75;10177312;28;20080;-66
2021/12/23 15:08:19;;;;;;;32.50;26.52;;;;;;;2.60;68.39;99645.22;10176198;28;20483;-66
2021/12/23 15:13:34;;;;;;;36.38;26.90;;;;;;;2.56;68.80;99628.75;10177584;28;20079;-65
2021/12/23 15:23:48;;;;;;;33.92;25.77;;;;;;;2.66;68.34;99623.81;10175274;28;20487;-65
2021/12/23 15:29:14;;;;;;;33.17;24.42;;;;;;;2.68;68.72;99635.09;10170847;28;20051;-64
2021/12/23 15:34:16;;;;;;;31.02;24.75;;;;;;;2.74;67.95;99626.84;10179300;28;20130;-65
2021/12/23 15:39:20;;;;;;;39.10;27.92;;;;;;;2.62;68.58;99643.31;10186172;28;20130;-65
2021/12/23 15:44:24;;;;;;;32.15;26.92;;;;;;;2.42;69.31;99633.97;10193493;28;20058;-64
2021/12/23 15:49:26;;;;;;;33.42;25.85;;;;;;;2.57;69.12;99616.47;10178740;28;20135;-65
2021/12/23 15:54:28;;;;;;;46.22;30.35;;;;;;;2.61;68.75;99621.47;10176837;28;20039;-66
2021/12/23 15:59:29;;;;;;;35.08;25.83;;;;;;;2.52;68.72;99614.09;10178169;28;20074;-64
2021/12/23 16:04:34;;;;;;;36.00;25.67;;;;;;;2.41;69.87;99609.44;10181886;28;20538;-65
2021/12/23 16:09:36;;;;;;;31.10;25.75;;;;;;;2.60;69.45;99611.03;10183561;28;20056;-70
2021/12/23 16:14:38;;;;;;;32.78;25.48;;;;;;;2.57;69.71;99613.84;10197469;28;20505;-65
2021/12/23 16:19:40;;;;;;;31.77;25.65;;;;;;;2.80;69.27;99602.81;10192039;28;20047;-64
2021/12/23 16:24:42;;;;;;;35.22;25.42;;;;;;;2.97;68.83;99585.22;10177600;28;20079;-66
2021/12/23 16:30:09;;;;;;;30.25;24.70;;;;;;;3.03;69.08;99574.31;10186258;28;20063;-64
2021/12/23 16:35:34;;;;;;;32.75;25.95;;;;;;;3.09;68.84;99573.97;10197047;28;20067;-65
2021/12/23 16:40:41;;;;;;;32.07;23.40;;;;;;;3.00;69.64;99579.75;10183782;28;20879;-66
2021/12/23 16:45:44;;;;;;;32.25;25.40;;;;;;;2.99;69.93;99581.56;10190393;28;20291;-65
2021/12/23 16:50:47;;;;;;;30.15;23.73;;;;;;;3.00;70.08;99571.88;10181714;28;20085;-65
2021/12/23 17:00:59;;;;;;;30.33;23.55;;;;;;;3.03;70.59;99547.19;10180990;28;20055;-66
2021/12/23 17:06:03;;;;;;;31.60;22.42;;;;;;;2.91;71.19;99522.47;10179685;28;20461;-66
2021/12/23 17:11:05;;;;;;;30.42;23.83;;;;;;;3.02;71.13;99520.06;10185213;28;20051;-65
2021/12/23 17:16:08;;;;;;;32.92;25.33;;;;;;;2.98;70.96;99518.56;10183985;28;20891;-65
2021/12/23 17:26:12;;;;;;;30.92;22.55;;;;;;;3.09;70.77;99516.13;10179552;28;20066;-65
2021/12/23 17:31:14;;;;;;;36.60;26.98;;;;;;;3.15;70.76;99507.84;10193203;28;20536;-65
2021/12/23 17:36:16;;;;;;;31.67;24.80;;;;;;;3.11;71.08;99498.47;10179770;28;20118;-67
2021/12/23 17:41:18;;;;;;;32.90;24.10;;;;;;;3.06;71.12;99505.75;10177197;28;20498;-66
2021/12/23 17:46:20;;;;;;;34.13;25.50;;;;;;;3.00;71.52;99488.59;10182145;28;20055;-66
2021/12/23 17:51:21;;;;;;;34.53;25.38;;;;;;;3.04;71.37;99517.34;10180905;28;20047;-65
2021/12/23 17:56:23;;;;;;;69.85;51.60;;;;;;;3.15;71.10;99515.75;10178195;28;21382;-64
2021/12/23 18:01:24;;;;;;;27.25;21.35;;;;;;;3.32;71.13;99533.09;10186989;28;20055;-65
2021/12/23 18:06:30;;;;;;;27.63;22.52;;;;;;;3.43;71.25;99521.06;10188149;28;20060;-65
2021/12/23 18:11:31;;;;;;;29.17;22.77;;;;;;;3.60;71.14;99525.25;10185857;28;20059;-66
2021/12/23 18:16:33;;;;;;;27.48;22.45;;;;;;;3.66;71.05;99524.88;10178650;28;20562;-65
2021/12/23 18:21:34;;;;;;;30.88;22.60;;;;;;;3.70;71.86;99513.22;10174853;28;20055;-65
2021/12/23 18:26:36;;;;;;;29.65;23.35;;;;;;;3.66;71.32;99512.59;10178718;28;20245;-65
2021/12/23 18:31:40;;;;;;;30.38;24.98;;;;;;;3.64;70.86;99489.91;10177763;28;20040;-65
2021/12/23 18:36:46;;;;;;;30.23;23.98;;;;;;;3.64;71.08;99495.19;10175706;28;20158;-66
2021/12/23 18:41:48;;;;;;;32.53;23.83;;;;;;;3.62;71.50;99512.84;10177389;28;20551;-66
2021/12/23 18:46:50;;;;;;;27.88;22.67;;;;;;;3.59;72.05;99510.41;10179742;28;20146;-65
2021/12/23 18:51:53;;;;;;;30.92;23.50;;;;;;;3.72;72.08;99511.31;10178786;28;20369;-65
2021/12/23 18:56:54;;;;;;;28.83;22.45;;;;;;;3.72;71.98;99501.66;10190784;28;20123;-66
2021/12/23 19:02:00;;;;;;;31.65;24.02;;;;;;;3.54;71.91;99474.72;10229419;23;20138;-60
2021/12/23 19:07:02;;;;;;;31.42;24.45;;;;;;;3.44;72.89;99484.13;10230171;28;20069;-60
2021/12/23 19:12:04;;;;;;;32.20;23.73;;;;;;;3.49;73.40;99489.94;10235153;28;20047;-64
2021/12/23 19:17:07;;;;;;;24.90;21.80;;;;;;;3.45;74.05;99491.09;10250550;28;20588;-64
2021/12/23 19:22:11;;;;;;;33.22;24.02;;;;;;;3.36;74.77;99473.25;10229921;28;20153;-62
2021/12/23 19:27:13;;;;;;;30.50;22.43;;;;;;;3.46;74.82;99468.25;10232791;28;20050;-63
2021/12/23 19:32:17;;;;;;;26.90;21.83;;;;;;;3.48;74.88;99469.00;10251704;28;20046;-61
2021/12/23 19:37:20;;;;;;;27.90;21.80;;;;;;;3.55;74.97;99483.47;10244065;28;20062;-61
2021/12/23 19:42:21;;;;;;;27.00;21.77;;;;;;;3.41;75.56;99463.28;10248732;28;20084;-61
2021/12/23 19:47:23;;;;;;;30.92;23.27;;;;;;;3.44;76.16;99473.63;10252350;28;21941;-62
2021/12/23 19:52:26;;;;;;;28.17;20.80;;;;;;;3.36;76.04;99470.59;10249588;28;20144;-61
2021/12/23 19:57:28;;;;;;;28.05;22.42;;;;;;;3.35;76.86;99466.31;10249307;28;20051;-62
2021/12/23 20:02:29;;;;;;;27.25;21.08;;;;;;;3.27;77.50;99456.28;10246620;28;20524;-61
2021/12/23 20:07:31;;;;;;;25.65;20.83;;;;;;;3.27;77.97;99460.66;10245647;28;20039;-61
2021/12/23 20:12:35;;;;;;;28.45;20.67;;;;;;;3.19;78.47;99443.56;10246711;28;20130;-60
2021/12/23 20:17:37;;;;;;;27.70;21.13;;;;;;;3.26;78.79;99454.56;10249796;28;20138;-61
2021/12/23 20:22:39;;;;;;;25.52;20.25;;;;;;;3.19;79.33;99433.06;10228699;28;20791;-61
2021/12/23 20:27:42;;;;;;;26.08;20.48;;;;;;;3.36;79.57;99444.31;10247222;28;20054;-64
2021/12/23 20:32:45;;;;;;;28.20;21.52;;;;;;;3.55;80.07;99457.13;10245953;28;20118;-60
2021/12/23 20:37:47;;;;;;;25.13;20.23;;;;;;;3.68;80.72;99465.94;10243335;28;20506;-63
2021/12/23 20:42:49;;;;;;;24.67;19.95;;;;;;;3.69;80.67;99461.50;10243658;28;20050;-61
2021/12/23 20:47:50;;;;;;;24.38;19.25;;;;;;;3.79;80.98;99473.13;10226515;28;20046;-62
2021/12/23 20:52:58;;;;;;;22.98;17.88;;;;;;;4.03;81.42;99464.59;10245575;28;20057;-62
2021/12/23 20:58:01;;;;;;;22.50;18.60;;;;;;;3.86;81.65;99437.56;10243803;28;20039;-60
2021/12/23 21:03:03;;;;;;;21.45;18.15;;;;;;;4.20;82.04;99460.81;10244908;28;20142;-61
2021/12/23 21:08:05;;;;;;;20.60;16.60;;;;;;;4.29;81.76;99469.91;10218412;28;20070;-61
2021/12/23 21:13:06;;;;;;;22.15;18.45;;;;;;;4.38;81.65;99448.19;10240416;28;20051;-61
2021/12/23 21:18:08;;;;;;;23.85;19.17;;;;;;;4.43;81.84;99435.56;10237282;28;20209;-60
2021/12/23 21:23:11;;;;;;;24.05;17.48;;;;;;;4.50;81.38;99407.81;10227616;28;20059;-60
2021/12/23 21:28:12;;;;;;;22.00;17.70;;;;;;;4.53;81.41;99393.59;10243822;28;20061;-61
2021/12/23 21:33:17;;;;;;;21.75;17.10;;;;;;;4.67;81.25;99390.00;10242514;28;20057;-61
2021/12/23 21:38:18;;;;;;;22.75;17.52;;;;;;;4.68;81.23;99381.16;10247853;28;20481;-63
2021/12/23 21:43:20;;;;;;;20.17;16.02;;;;;;;4.86;81.91;99373.75;10225138;28;20054;-61
2021/12/23 21:48:21;;;;;;;20.48;15.93;;;;;;;4.92;82.43;99366.25;10245480;28;20057;-61
2021/12/23 21:53:23;;;;;;;18.08;15.43;;;;;;;5.04;83.11;99372.41;10238347;28;20754;-61
2021/12/23 21:58:25;;;;;;;20.13;14.15;;;;;;;5.08;83.49;99367.78;10243095;28;20051;-61
2021/12/23 22:03:26;;;;;;;17.98;14.65;;;;;;;5.12;83.75;99359.53;10242141;28;20525;-61
2021/12/23 22:08:28;;;;;;;14.75;13.23;;;;;;;5.12;83.42;99341.06;10238016;28;20059;-61
2021/12/23 22:13:29;;;;;;;14.98;13.25;;;;;;;5.25;83.03;99350.72;10239238;28;20050;-61
2021/12/23 22:18:31;;;;;;;18.23;15.25;;;;;;;5.30;83.03;99333.63;10237061;28;20182;-62
2021/12/23 22:23:33;;;;;;;14.32;12.73;;;;;;;5.36;83.57;99331.47;10241389;28;20050;-61
2021/12/23 22:28:34;;;;;;;15.07;13.23;;;;;;;5.33;84.39;99324.63;10238681;28;20058;-61
2021/12/23 22:33:35;;;;;;;15.70;13.30;;;;;;;5.33;85.52;99308.81;10222270;28;20051;-61
2021/12/23 22:38:37;;;;;;;14.80;12.80;;;;;;;5.42;86.35;99323.09;10240601;28;20057;-63
2021/12/23 22:43:38;;;;;;;17.77;13.10;;;;;;;5.49;86.37;99317.28;10265193;28;20129;-62
2021/12/23 22:48:40;;;;;;;14.65;12.05;;;;;;;5.58;87.79;99307.81;10252056;28;20129;-62
2021/12/23 22:53:41;;;;;;;17.27;12.32;;;;;;;5.71;87.59;99318.28;10267475;28;20137;-62
2021/12/23 22:58:43;;;;;;;13.95;11.88;;;;;;;5.79;88.24;99307.16;10237309;28;20132;-60
2021/12/23 23:03:44;;;;;;;14.90;11.55;;;;;;;5.84;88.77;99297.09;10267199;28;20053;-61
2021/12/23 23:08:46;;;;;;;16.55;11.73;;;;;;;5.86;88.86;99284.59;10261279;28;20107;-59
2021/12/23 23:13:58;;;;;;;14.70;11.50;;;;;;;5.89;89.04;99292.28;10247056;28;20589;-59
2021/12/23 23:19:03;;;;;;;13.20;10.93;;;;;;;5.98;89.36;99286.34;10267758;28;20142;-60
2021/12/23 23:24:12;;;;;;;12.73;10.53;;;;;;;6.02;89.00;99284.31;10259634;28;20083;-60
2021/12/23 23:40:11;;;;;;;13.07;11.07;;;;;;;6.24;88.80;99267.59;10265881;28;20042;-60
2021/12/23 23:45:15;;;;;;;13.18;10.95;;;;;;;6.27;88.56;99259.44;10264909;28;20042;-60
2021/12/23 23:50:17;;;;;;;12.15;10.13;;;;;;;6.39;88.83;99268.22;10265461;28;20276;-60
2021/12/23 23:55:20;;;;;;;12.80;10.85;;;;;;;6.36;89.70;99252.59;10266276;28;20050;-59
